American Lake, Washington
Current Conditions -  °F | °C
As of 6:58 PM on Thursday 18 Dec 2014 (Local Time) from KGRF Reporting Station
Light Rain Light Rain  
Wind Chill: 45°   Ceiling: 3800
Heat Index: 48°   Visibility: 9mi
Dew Point: 48°   Wind: 7mph
Humidity: 99%   Direction: 110°ESE
Pressure: 29.74"   Gusts: NA
Location:  47.1451°N, 122.578°W
Report Text: KGRF 190258Z AUTO 11006KT 9SM -RA BKN038 OVC049 09/09 A2974 RMK AO2 DZE47RAB47 SLP076 P0001 60002 T00910090 55014 $
Loading
Personal Weather Stations






























Interactive Weather Map New forecast layout! Learn more

10-Day Weather Forecast

Advertisements
Track Severe Weather on mobile